sensor_id;sensor_type;location;lat;lon;timestamp;temperature;humidity
81895;DHT22;71358;45.642;13.758;2023-07-29T00:00:30;27.60;58.70
81895;DHT22;71358;45.642;13.758;2023-07-29T00:03:14;27.50;58.50
81895;DHT22;71358;45.642;13.758;2023-07-29T00:05:59;27.50;58.40
81895;DHT22;71358;45.642;13.758;2023-07-29T00:08:44;27.50;58.30
81895;DHT22;71358;45.642;13.758;2023-07-29T00:11:29;27.50;58.20
81895;DHT22;71358;45.642;13.758;2023-07-29T00:14:14;27.50;58.10
81895;DHT22;71358;45.642;13.758;2023-07-29T00:16:59;27.50;58.00
81895;DHT22;71358;45.642;13.758;2023-07-29T00:19:43;27.50;57.90
81895;DHT22;71358;45.642;13.758;2023-07-29T00:22:28;27.50;57.90
81895;DHT22;71358;45.642;13.758;2023-07-29T00:25:12;27.50;57.80
81895;DHT22;71358;45.642;13.758;2023-07-29T00:27:58;27.50;57.70
81895;DHT22;71358;45.642;13.758;2023-07-29T00:30:43;27.50;57.70
81895;DHT22;71358;45.642;13.758;2023-07-29T00:33:28;27.50;57.60
81895;DHT22;71358;45.642;13.758;2023-07-29T00:36:12;27.50;57.60
81895;DHT22;71358;45.642;13.758;2023-07-29T00:38:57;27.50;57.60
81895;DHT22;71358;45.642;13.758;2023-07-29T00:41:42;27.50;57.60
81895;DHT22;71358;45.642;13.758;2023-07-29T00:44:26;27.50;57.50
81895;DHT22;71358;45.642;13.758;2023-07-29T00:47:11;27.50;57.50
81895;DHT22;71358;45.642;13.758;2023-07-29T00:49:56;27.50;57.50
81895;DHT22;71358;45.642;13.758;2023-07-29T00:52:42;27.50;57.40
81895;DHT22;71358;45.642;13.758;2023-07-29T00:55:27;27.50;57.40
81895;DHT22;71358;45.642;13.758;2023-07-29T00:58:12;27.50;57.30
81895;DHT22;71358;45.642;13.758;2023-07-29T01:00:57;27.40;57.20
81895;DHT22;71358;45.642;13.758;2023-07-29T01:03:41;27.50;57.30
81895;DHT22;71358;45.642;13.758;2023-07-29T01:10:07;27.50;57.30
81895;DHT22;71358;45.642;13.758;2023-07-29T01:13:36;27.50;57.30
81895;DHT22;71358;45.642;13.758;2023-07-29T01:16:39;27.50;57.30
81895;DHT22;71358;45.642;13.758;2023-07-29T01:22:29;27.40;57.20
81895;DHT22;71358;45.642;13.758;2023-07-29T01:25:15;27.40;57.20
81895;DHT22;71358;45.642;13.758;2023-07-29T01:27:59;27.40;57.10
81895;DHT22;71358;45.642;13.758;2023-07-29T01:30:44;27.40;57.10
81895;DHT22;71358;45.642;13.758;2023-07-29T01:33:34;27.40;57.10
81895;DHT22;71358;45.642;13.758;2023-07-29T01:36:22;27.40;57.10
81895;DHT22;71358;45.642;13.758;2023-07-29T01:39:08;27.40;57.00
81895;DHT22;71358;45.642;13.758;2023-07-29T01:41:57;27.40;57.00
81895;DHT22;71358;45.642;13.758;2023-07-29T01:44:41;27.40;56.90
81895;DHT22;71358;45.642;13.758;2023-07-29T01:47:26;27.40;56.90
81895;DHT22;71358;45.642;13.758;2023-07-29T01:50:12;27.40;56.90
81895;DHT22;71358;45.642;13.758;2023-07-29T01:52:58;27.40;56.90
81895;DHT22;71358;45.642;13.758;2023-07-29T01:55:43;27.40;57.10
81895;DHT22;71358;45.642;13.758;2023-07-29T01:58:28;27.40;56.90
81895;DHT22;71358;45.642;13.758;2023-07-29T02:01:13;27.40;56.90
81895;DHT22;71358;45.642;13.758;2023-07-29T02:03:57;27.40;56.80
81895;DHT22;71358;45.642;13.758;2023-07-29T02:06:42;27.40;56.80
81895;DHT22;71358;45.642;13.758;2023-07-29T02:09:27;27.40;56.80
81895;DHT22;71358;45.642;13.758;2023-07-29T02:12:11;27.40;56.70
81895;DHT22;71358;45.642;13.758;2023-07-29T02:14:56;27.40;56.70
81895;DHT22;71358;45.642;13.758;2023-07-29T02:17:41;27.40;56.70
81895;DHT22;71358;45.642;13.758;2023-07-29T02:20:26;27.40;56.60
81895;DHT22;71358;45.642;13.758;2023-07-29T02:23:10;27.40;56.60
81895;DHT22;71358;45.642;13.758;2023-07-29T02:25:55;27.40;56.60
81895;DHT22;71358;45.642;13.758;2023-07-29T02:28:39;27.40;56.60
81895;DHT22;71358;45.642;13.758;2023-07-29T02:31:25;27.40;56.60
81895;DHT22;71358;45.642;13.758;2023-07-29T02:34:10;27.40;56.60
81895;DHT22;71358;45.642;13.758;2023-07-29T02:36:54;27.40;56.70
81895;DHT22;71358;45.642;13.758;2023-07-29T02:39:39;27.40;56.70
81895;DHT22;71358;45.642;13.758;2023-07-29T02:42:23;27.40;56.60
81895;DHT22;71358;45.642;13.758;2023-07-29T02:45:08;27.40;56.60
81895;DHT22;71358;45.642;13.758;2023-07-29T02:47:54;27.40;56.50
81895;DHT22;71358;45.642;13.758;2023-07-29T02:50:39;27.40;56.60
81895;DHT22;71358;45.642;13.758;2023-07-29T02:53:24;27.40;56.60
81895;DHT22;71358;45.642;13.758;2023-07-29T02:56:09;27.40;56.70
81895;DHT22;71358;45.642;13.758;2023-07-29T02:58:53;27.40;56.70
81895;DHT22;71358;45.642;13.758;2023-07-29T03:01:38;27.40;56.70
81895;DHT22;71358;45.642;13.758;2023-07-29T03:04:23;27.40;56.80
81895;DHT22;71358;45.642;13.758;2023-07-29T03:07:08;27.40;56.80
81895;DHT22;71358;45.642;13.758;2023-07-29T03:09:54;27.40;56.80
81895;DHT22;71358;45.642;13.758;2023-07-29T03:12:38;27.40;56.80
81895;DHT22;71358;45.642;13.758;2023-07-29T03:15:24;27.40;56.80
81895;DHT22;71358;45.642;13.758;2023-07-29T03:18:09;27.40;56.80
81895;DHT22;71358;45.642;13.758;2023-07-29T03:20:55;27.40;56.80
81895;DHT22;71358;45.642;13.758;2023-07-29T03:23:40;27.40;56.90
81895;DHT22;71358;45.642;13.758;2023-07-29T03:26:25;27.40;56.90
81895;DHT22;71358;45.642;13.758;2023-07-29T03:29:10;27.40;56.90
81895;DHT22;71358;45.642;13.758;2023-07-29T03:31:54;27.40;56.90
81895;DHT22;71358;45.642;13.758;2023-07-29T03:34:39;27.40;56.90
81895;DHT22;71358;45.642;13.758;2023-07-29T03:37:24;27.40;57.00
81895;DHT22;71358;45.642;13.758;2023-07-29T03:40:09;27.40;56.90
81895;DHT22;71358;45.642;13.758;2023-07-29T03:42:54;27.40;56.90
81895;DHT22;71358;45.642;13.758;2023-07-29T03:45:39;27.40;57.00
81895;DHT22;71358;45.642;13.758;2023-07-29T03:48:24;27.40;57.00
81895;DHT22;71358;45.642;13.758;2023-07-29T03:51:09;27.40;57.00
81895;DHT22;71358;45.642;13.758;2023-07-29T03:53:53;27.40;57.10
81895;DHT22;71358;45.642;13.758;2023-07-29T03:56:38;27.40;57.10
81895;DHT22;71358;45.642;13.758;2023-07-29T03:59:22;27.40;57.10
81895;DHT22;71358;45.642;13.758;2023-07-29T04:02:07;27.40;57.20
81895;DHT22;71358;45.642;13.758;2023-07-29T04:04:52;27.40;57.30
81895;DHT22;71358;45.642;13.758;2023-07-29T04:07:37;27.40;57.30
81895;DHT22;71358;45.642;13.758;2023-07-29T04:10:22;27.40;57.40
81895;DHT22;71358;45.642;13.758;2023-07-29T04:13:06;27.40;57.40
81895;DHT22;71358;45.642;13.758;2023-07-29T04:15:51;27.40;57.50
81895;DHT22;71358;45.642;13.758;2023-07-29T04:18:37;27.40;57.60
81895;DHT22;71358;45.642;13.758;2023-07-29T04:21:23;27.40;57.60
81895;DHT22;71358;45.642;13.758;2023-07-29T04:24:07;27.40;57.60
81895;DHT22;71358;45.642;13.758;2023-07-29T04:26:52;27.40;57.50
81895;DHT22;71358;45.642;13.758;2023-07-29T04:29:37;27.40;57.60
81895;DHT22;71358;45.642;13.758;2023-07-29T04:32:21;27.40;57.60
81895;DHT22;71358;45.642;13.758;2023-07-29T04:35:06;27.40;57.60
81895;DHT22;71358;45.642;13.758;2023-07-29T04:37:54;27.40;57.70
81895;DHT22;71358;45.642;13.758;2023-07-29T04:40:39;27.40;57.70
81895;DHT22;71358;45.642;13.758;2023-07-29T04:43:27;27.40;57.70
81895;DHT22;71358;45.642;13.758;2023-07-29T04:46:12;27.40;57.70
81895;DHT22;71358;45.642;13.758;2023-07-29T04:48:56;27.40;57.70
81895;DHT22;71358;45.642;13.758;2023-07-29T04:51:41;27.40;57.80
81895;DHT22;71358;45.642;13.758;2023-07-29T04:54:25;27.40;57.90
81895;DHT22;71358;45.642;13.758;2023-07-29T04:57:10;27.40;57.90
81895;DHT22;71358;45.642;13.758;2023-07-29T04:59:54;27.40;57.90
81895;DHT22;71358;45.642;13.758;2023-07-29T05:02:39;27.40;58.00
81895;DHT22;71358;45.642;13.758;2023-07-29T05:05:23;27.40;57.90
81895;DHT22;71358;45.642;13.758;2023-07-29T05:08:08;27.40;57.90
81895;DHT22;71358;45.642;13.758;2023-07-29T05:10:53;27.40;57.80
81895;DHT22;71358;45.642;13.758;2023-07-29T05:13:38;27.40;57.80
81895;DHT22;71358;45.642;13.758;2023-07-29T05:16:23;27.40;57.80
81895;DHT22;71358;45.642;13.758;2023-07-29T05:19:07;27.40;57.80
81895;DHT22;71358;45.642;13.758;2023-07-29T05:21:52;27.40;57.80
81895;DHT22;71358;45.642;13.758;2023-07-29T05:24:36;27.40;57.90
81895;DHT22;71358;45.642;13.758;2023-07-29T05:27:21;27.40;57.80
81895;DHT22;71358;45.642;13.758;2023-07-29T05:30:06;27.40;57.80
81895;DHT22;71358;45.642;13.758;2023-07-29T05:32:51;27.40;57.80
81895;DHT22;71358;45.642;13.758;2023-07-29T05:35:36;27.40;57.80
81895;DHT22;71358;45.642;13.758;2023-07-29T05:38:21;27.40;57.80
81895;DHT22;71358;45.642;13.758;2023-07-29T05:41:05;27.40;57.80
81895;DHT22;71358;45.642;13.758;2023-07-29T05:43:50;27.40;57.80
81895;DHT22;71358;45.642;13.758;2023-07-29T05:46:34;27.40;57.80
81895;DHT22;71358;45.642;13.758;2023-07-29T05:49:19;27.40;57.80
81895;DHT22;71358;45.642;13.758;2023-07-29T05:52:04;27.40;57.90
81895;DHT22;71358;45.642;13.758;2023-07-29T05:54:49;27.40;57.80
81895;DHT22;71358;45.642;13.758;2023-07-29T05:57:34;27.40;57.80
81895;DHT22;71358;45.642;13.758;2023-07-29T06:00:18;27.40;57.90
81895;DHT22;71358;45.642;13.758;2023-07-29T06:03:03;27.40;57.90
81895;DHT22;71358;45.642;13.758;2023-07-29T06:05:49;27.40;57.90
81895;DHT22;71358;45.642;13.758;2023-07-29T06:08:33;27.40;57.90
81895;DHT22;71358;45.642;13.758;2023-07-29T06:11:18;27.40;57.90
81895;DHT22;71358;45.642;13.758;2023-07-29T06:14:03;27.40;57.90
81895;DHT22;71358;45.642;13.758;2023-07-29T06:16:47;27.50;58.00
81895;DHT22;71358;45.642;13.758;2023-07-29T06:19:32;27.50;58.00
81895;DHT22;71358;45.642;13.758;2023-07-29T06:22:16;27.40;58.00
81895;DHT22;71358;45.642;13.758;2023-07-29T06:25:01;27.40;58.00
81895;DHT22;71358;45.642;13.758;2023-07-29T06:27:46;27.40;58.00
81895;DHT22;71358;45.642;13.758;2023-07-29T06:30:30;27.50;58.10
81895;DHT22;71358;45.642;13.758;2023-07-29T06:33:15;27.50;58.10
81895;DHT22;71358;45.642;13.758;2023-07-29T06:36:00;27.50;58.20
81895;DHT22;71358;45.642;13.758;2023-07-29T06:38:45;27.50;58.20
81895;DHT22;71358;45.642;13.758;2023-07-29T06:41:29;27.50;58.20
81895;DHT22;71358;45.642;13.758;2023-07-29T06:44:17;27.50;58.20
81895;DHT22;71358;45.642;13.758;2023-07-29T06:47:02;27.50;58.20
81895;DHT22;71358;45.642;13.758;2023-07-29T06:49:47;27.50;58.20
81895;DHT22;71358;45.642;13.758;2023-07-29T06:52:31;27.50;58.20
81895;DHT22;71358;45.642;13.758;2023-07-29T06:55:16;27.50;58.20
81895;DHT22;71358;45.642;13.758;2023-07-29T06:58:01;27.50;58.20
81895;DHT22;71358;45.642;13.758;2023-07-29T07:00:45;27.50;58.40
81895;DHT22;71358;45.642;13.758;2023-07-29T07:03:30;27.50;58.30
81895;DHT22;71358;45.642;13.758;2023-07-29T07:06:14;27.50;58.30
81895;DHT22;71358;45.642;13.758;2023-07-29T07:08:59;27.50;58.30
81895;DHT22;71358;45.642;13.758;2023-07-29T07:11:44;27.50;58.30
81895;DHT22;71358;45.642;13.758;2023-07-29T07:14:28;27.50;58.40
81895;DHT22;71358;45.642;13.758;2023-07-29T07:17:13;27.50;58.40
81895;DHT22;71358;45.642;13.758;2023-07-29T07:19:57;27.50;58.50
81895;DHT22;71358;45.642;13.758;2023-07-29T07:22:42;27.50;58.50
81895;DHT22;71358;45.642;13.758;2023-07-29T07:25:26;27.50;58.80
81895;DHT22;71358;45.642;13.758;2023-07-29T07:28:11;27.70;59.60
81895;DHT22;71358;45.642;13.758;2023-07-29T07:30:56;27.70;59.70
81895;DHT22;71358;45.642;13.758;2023-07-29T07:33:40;27.60;60.10
81895;DHT22;71358;45.642;13.758;2023-07-29T07:36:25;27.50;60.50
81895;DHT22;71358;45.642;13.758;2023-07-29T07:39:10;27.50;61.10
81895;DHT22;71358;45.642;13.758;2023-07-29T07:41:54;27.40;61.40
81895;DHT22;71358;45.642;13.758;2023-07-29T07:44:39;27.40;61.60
81895;DHT22;71358;45.642;13.758;2023-07-29T07:47:23;27.40;61.80
81895;DHT22;71358;45.642;13.758;2023-07-29T07:50:08;27.30;61.90
81895;DHT22;71358;45.642;13.758;2023-07-29T07:52:52;27.30;61.90
81895;DHT22;71358;45.642;13.758;2023-07-29T07:55:37;27.30;61.90
81895;DHT22;71358;45.642;13.758;2023-07-29T07:58:21;27.30;61.90
81895;DHT22;71358;45.642;13.758;2023-07-29T08:01:07;27.30;61.80
81895;DHT22;71358;45.642;13.758;2023-07-29T08:03:52;27.30;61.60
81895;DHT22;71358;45.642;13.758;2023-07-29T08:06:37;27.30;61.40
81895;DHT22;71358;45.642;13.758;2023-07-29T08:09:21;27.30;61.10
81895;DHT22;71358;45.642;13.758;2023-07-29T08:12:06;27.30;60.80
81895;DHT22;71358;45.642;13.758;2023-07-29T08:14:51;27.30;60.50
81895;DHT22;71358;45.642;13.758;2023-07-29T08:17:35;27.30;60.60
81895;DHT22;71358;45.642;13.758;2023-07-29T08:20:20;27.30;60.80
81895;DHT22;71358;45.642;13.758;2023-07-29T08:23:04;27.30;61.00
81895;DHT22;71358;45.642;13.758;2023-07-29T08:25:54;27.40;60.90
81895;DHT22;71358;45.642;13.758;2023-07-29T08:28:40;27.40;60.90
81895;DHT22;71358;45.642;13.758;2023-07-29T08:31:24;27.40;61.10
81895;DHT22;71358;45.642;13.758;2023-07-29T08:34:09;27.40;61.00
81895;DHT22;71358;45.642;13.758;2023-07-29T08:36:54;27.40;61.20
81895;DHT22;71358;45.642;13.758;2023-07-29T08:39:38;27.40;61.60
81895;DHT22;71358;45.642;13.758;2023-07-29T08:42:27;27.40;61.80
81895;DHT22;71358;45.642;13.758;2023-07-29T08:45:14;27.40;61.50
81895;DHT22;71358;45.642;13.758;2023-07-29T08:47:59;27.40;60.90
81895;DHT22;71358;45.642;13.758;2023-07-29T08:50:45;27.50;60.10
81895;DHT22;71358;45.642;13.758;2023-07-29T08:53:31;27.50;59.50
81895;DHT22;71358;45.642;13.758;2023-07-29T08:56:16;27.50;59.20
81895;DHT22;71358;45.642;13.758;2023-07-29T08:59:00;27.50;59.70
81895;DHT22;71358;45.642;13.758;2023-07-29T09:01:47;27.50;58.90
81895;DHT22;71358;45.642;13.758;2023-07-29T09:04:32;27.50;58.80
81895;DHT22;71358;45.642;13.758;2023-07-29T09:07:16;27.60;58.70
81895;DHT22;71358;45.642;13.758;2023-07-29T09:10:02;27.70;58.50
81895;DHT22;71358;45.642;13.758;2023-07-29T09:12:47;27.70;58.50
81895;DHT22;71358;45.642;13.758;2023-07-29T09:15:34;27.70;58.30
81895;DHT22;71358;45.642;13.758;2023-07-29T09:18:20;27.70;58.10
81895;DHT22;71358;45.642;13.758;2023-07-29T09:21:04;27.70;57.90
81895;DHT22;71358;45.642;13.758;2023-07-29T09:23:50;27.70;57.80
81895;DHT22;71358;45.642;13.758;2023-07-29T09:26:35;27.70;57.70
81895;DHT22;71358;45.642;13.758;2023-07-29T09:29:23;27.70;57.70
81895;DHT22;71358;45.642;13.758;2023-07-29T09:32:20;27.70;57.50
81895;DHT22;71358;45.642;13.758;2023-07-29T09:35:10;27.70;57.50
81895;DHT22;71358;45.642;13.758;2023-07-29T09:37:55;27.70;57.50
81895;DHT22;71358;45.642;13.758;2023-07-29T09:40:40;27.70;57.50
81895;DHT22;71358;45.642;13.758;2023-07-29T09:43:28;27.70;57.50
81895;DHT22;71358;45.642;13.758;2023-07-29T09:46:13;27.70;57.40
81895;DHT22;71358;45.642;13.758;2023-07-29T09:48:58;27.70;57.40
81895;DHT22;71358;45.642;13.758;2023-07-29T09:51:43;27.70;57.40
81895;DHT22;71358;45.642;13.758;2023-07-29T09:54:27;27.70;57.40
81895;DHT22;71358;45.642;13.758;2023-07-29T09:57:16;27.70;57.40
81895;DHT22;71358;45.642;13.758;2023-07-29T10:00:00;27.70;57.30
81895;DHT22;71358;45.642;13.758;2023-07-29T10:02:45;27.70;57.30
81895;DHT22;71358;45.642;13.758;2023-07-29T10:05:30;27.70;57.30
81895;DHT22;71358;45.642;13.758;2023-07-29T10:08:14;27.70;57.30
81895;DHT22;71358;45.642;13.758;2023-07-29T10:11:02;27.70;57.30
81895;DHT22;71358;45.642;13.758;2023-07-29T10:13:48;27.70;57.30
81895;DHT22;71358;45.642;13.758;2023-07-29T10:16:37;27.70;57.30
81895;DHT22;71358;45.642;13.758;2023-07-29T10:19:23;27.70;57.30
81895;DHT22;71358;45.642;13.758;2023-07-29T10:22:10;27.70;57.20
81895;DHT22;71358;45.642;13.758;2023-07-29T10:25:02;27.70;57.30
81895;DHT22;71358;45.642;13.758;2023-07-29T10:28:04;27.70;57.20
81895;DHT22;71358;45.642;13.758;2023-07-29T10:30:50;27.70;57.20
81895;DHT22;71358;45.642;13.758;2023-07-29T10:33:35;27.70;57.20
81895;DHT22;71358;45.642;13.758;2023-07-29T10:36:20;27.70;57.20
81895;DHT22;71358;45.642;13.758;2023-07-29T10:39:07;27.70;57.20
81895;DHT22;71358;45.642;13.758;2023-07-29T10:47:25;27.70;57.30
81895;DHT22;71358;45.642;13.758;2023-07-29T10:50:21;27.70;57.20
81895;DHT22;71358;45.642;13.758;2023-07-29T10:53:06;27.70;57.20
81895;DHT22;71358;45.642;13.758;2023-07-29T10:55:51;27.70;57.30
81895;DHT22;71358;45.642;13.758;2023-07-29T10:58:36;27.70;57.30
81895;DHT22;71358;45.642;13.758;2023-07-29T11:01:30;27.70;57.40
81895;DHT22;71358;45.642;13.758;2023-07-29T11:12:49;27.70;57.40
81895;DHT22;71358;45.642;13.758;2023-07-29T11:15:39;27.70;57.50
81895;DHT22;71358;45.642;13.758;2023-07-29T11:18:30;27.70;57.50
81895;DHT22;71358;45.642;13.758;2023-07-29T11:21:14;27.70;57.50
81895;DHT22;71358;45.642;13.758;2023-07-29T11:23:59;27.70;57.50
81895;DHT22;71358;45.642;13.758;2023-07-29T11:26:47;27.70;57.50
81895;DHT22;71358;45.642;13.758;2023-07-29T11:29:31;27.80;57.60
81895;DHT22;71358;45.642;13.758;2023-07-29T11:32:16;27.70;57.50
81895;DHT22;71358;45.642;13.758;2023-07-29T11:35:06;27.70;57.60
81895;DHT22;71358;45.642;13.758;2023-07-29T11:37:53;27.70;57.50
81895;DHT22;71358;45.642;13.758;2023-07-29T11:40:38;27.70;57.50
81895;DHT22;71358;45.642;13.758;2023-07-29T11:43:23;27.70;57.60
81895;DHT22;71358;45.642;13.758;2023-07-29T11:46:07;27.70;57.50
81895;DHT22;71358;45.642;13.758;2023-07-29T11:48:54;27.70;57.60
81895;DHT22;71358;45.642;13.758;2023-07-29T11:51:41;27.80;57.60
81895;DHT22;71358;45.642;13.758;2023-07-29T11:54:26;27.70;58.10
81895;DHT22;71358;45.642;13.758;2023-07-29T11:57:12;27.70;57.50
81895;DHT22;71358;45.642;13.758;2023-07-29T11:59:56;27.70;57.40
81895;DHT22;71358;45.642;13.758;2023-07-29T12:02:43;27.70;57.40
81895;DHT22;71358;45.642;13.758;2023-07-29T12:05:30;27.70;57.40
81895;DHT22;71358;45.642;13.758;2023-07-29T12:08:15;27.70;57.30
81895;DHT22;71358;45.642;13.758;2023-07-29T12:11:00;27.70;57.30
81895;DHT22;71358;45.642;13.758;2023-07-29T12:13:44;27.70;57.30
81895;DHT22;71358;45.642;13.758;2023-07-29T12:16:31;27.70;57.30
81895;DHT22;71358;45.642;13.758;2023-07-29T12:19:19;27.70;57.30
81895;DHT22;71358;45.642;13.758;2023-07-29T12:22:07;27.70;57.30
81895;DHT22;71358;45.642;13.758;2023-07-29T12:24:51;27.70;57.30
81895;DHT22;71358;45.642;13.758;2023-07-29T12:27:37;27.70;57.20
81895;DHT22;71358;45.642;13.758;2023-07-29T12:30:23;27.70;57.20
81895;DHT22;71358;45.642;13.758;2023-07-29T12:33:09;27.70;57.20
81895;DHT22;71358;45.642;13.758;2023-07-29T12:35:54;27.70;57.30
81895;DHT22;71358;45.642;13.758;2023-07-29T12:38:38;27.70;57.20
81895;DHT22;71358;45.642;13.758;2023-07-29T12:41:23;27.70;57.20
81895;DHT22;71358;45.642;13.758;2023-07-29T12:44:07;27.70;57.20
81895;DHT22;71358;45.642;13.758;2023-07-29T12:46:52;27.70;57.80
81895;DHT22;71358;45.642;13.758;2023-07-29T12:49:37;27.70;57.20
81895;DHT22;71358;45.642;13.758;2023-07-29T12:52:21;27.70;57.30
81895;DHT22;71358;45.642;13.758;2023-07-29T12:55:06;27.70;57.20
81895;DHT22;71358;45.642;13.758;2023-07-29T12:57:53;27.70;57.20
81895;DHT22;71358;45.642;13.758;2023-07-29T13:00:37;27.70;57.30
81895;DHT22;71358;45.642;13.758;2023-07-29T13:03:22;27.70;57.30
81895;DHT22;71358;45.642;13.758;2023-07-29T13:06:07;27.70;57.30
81895;DHT22;71358;45.642;13.758;2023-07-29T13:08:52;27.70;57.30
81895;DHT22;71358;45.642;13.758;2023-07-29T13:11:36;27.70;57.40
81895;DHT22;71358;45.642;13.758;2023-07-29T13:14:21;27.70;57.40
81895;DHT22;71358;45.642;13.758;2023-07-29T13:17:05;27.70;57.40
81895;DHT22;71358;45.642;13.758;2023-07-29T13:19:50;27.70;57.40
81895;DHT22;71358;45.642;13.758;2023-07-29T13:22:35;27.70;57.50
81895;DHT22;71358;45.642;13.758;2023-07-29T13:25:19;27.70;57.50
81895;DHT22;71358;45.642;13.758;2023-07-29T13:28:04;27.70;57.60
81895;DHT22;71358;45.642;13.758;2023-07-29T13:30:49;27.70;57.60
81895;DHT22;71358;45.642;13.758;2023-07-29T13:33:33;27.70;57.60
81895;DHT22;71358;45.642;13.758;2023-07-29T13:36:18;27.80;57.80
81895;DHT22;71358;45.642;13.758;2023-07-29T13:39:02;27.80;57.70
81895;DHT22;71358;45.642;13.758;2023-07-29T13:41:47;27.80;57.80
81895;DHT22;71358;45.642;13.758;2023-07-29T13:44:31;27.70;57.70
81895;DHT22;71358;45.642;13.758;2023-07-29T13:47:16;27.70;57.80
81895;DHT22;71358;45.642;13.758;2023-07-29T13:50:01;27.70;57.70
81895;DHT22;71358;45.642;13.758;2023-07-29T13:52:46;27.80;57.90
81895;DHT22;71358;45.642;13.758;2023-07-29T13:55:31;27.80;57.90
81895;DHT22;71358;45.642;13.758;2023-07-29T13:58:15;27.80;58.00
81895;DHT22;71358;45.642;13.758;2023-07-29T14:01:00;27.80;58.10
81895;DHT22;71358;45.642;13.758;2023-07-29T14:03:45;27.80;58.20
81895;DHT22;71358;45.642;13.758;2023-07-29T14:06:29;27.80;58.20
81895;DHT22;71358;45.642;13.758;2023-07-29T14:09:14;27.80;58.30
81895;DHT22;71358;45.642;13.758;2023-07-29T14:11:58;27.80;58.50
81895;DHT22;71358;45.642;13.758;2023-07-29T14:14:43;27.80;58.60
81895;DHT22;71358;45.642;13.758;2023-07-29T14:17:27;27.80;58.70
81895;DHT22;71358;45.642;13.758;2023-07-29T14:20:12;27.80;58.80
81895;DHT22;71358;45.642;13.758;2023-07-29T14:22:57;27.80;58.80
81895;DHT22;71358;45.642;13.758;2023-07-29T14:25:42;27.80;58.90
81895;DHT22;71358;45.642;13.758;2023-07-29T14:28:26;27.80;59.00
81895;DHT22;71358;45.642;13.758;2023-07-29T14:31:11;27.80;59.10
81895;DHT22;71358;45.642;13.758;2023-07-29T14:33:56;27.80;59.20
81895;DHT22;71358;45.642;13.758;2023-07-29T14:36:40;27.80;59.20
81895;DHT22;71358;45.642;13.758;2023-07-29T14:39:25;27.80;59.30
81895;DHT22;71358;45.642;13.758;2023-07-29T14:42:09;27.80;59.30
81895;DHT22;71358;45.642;13.758;2023-07-29T14:44:54;27.80;59.30
81895;DHT22;71358;45.642;13.758;2023-07-29T14:47:39;27.80;59.40
81895;DHT22;71358;45.642;13.758;2023-07-29T14:50:23;27.80;59.20
81895;DHT22;71358;45.642;13.758;2023-07-29T14:53:08;27.80;59.30
81895;DHT22;71358;45.642;13.758;2023-07-29T14:55:52;27.80;59.40
81895;DHT22;71358;45.642;13.758;2023-07-29T14:58:38;27.80;59.40
81895;DHT22;71358;45.642;13.758;2023-07-29T15:01:23;27.80;59.50
81895;DHT22;71358;45.642;13.758;2023-07-29T15:04:07;27.80;59.50
81895;DHT22;71358;45.642;13.758;2023-07-29T15:06:52;27.80;59.50
81895;DHT22;71358;45.642;13.758;2023-07-29T15:09:37;27.80;59.50
81895;DHT22;71358;45.642;13.758;2023-07-29T15:12:21;27.80;59.80
81895;DHT22;71358;45.642;13.758;2023-07-29T15:15:07;27.80;59.90
81895;DHT22;71358;45.642;13.758;2023-07-29T15:17:51;27.80;60.00
81895;DHT22;71358;45.642;13.758;2023-07-29T15:20:36;27.80;60.00
81895;DHT22;71358;45.642;13.758;2023-07-29T15:23:21;27.80;60.00
81895;DHT22;71358;45.642;13.758;2023-07-29T15:26:05;27.90;60.10
81895;DHT22;71358;45.642;13.758;2023-07-29T15:28:50;27.80;60.10
81895;DHT22;71358;45.642;13.758;2023-07-29T15:31:35;27.90;60.30
81895;DHT22;71358;45.642;13.758;2023-07-29T15:34:20;27.80;60.20
81895;DHT22;71358;45.642;13.758;2023-07-29T15:37:05;27.80;60.30
81895;DHT22;71358;45.642;13.758;2023-07-29T15:39:50;27.80;60.40
81895;DHT22;71358;45.642;13.758;2023-07-29T15:42:34;27.90;60.40
81895;DHT22;71358;45.642;13.758;2023-07-29T15:45:19;27.80;60.20
81895;DHT22;71358;45.642;13.758;2023-07-29T15:48:04;27.90;60.40
81895;DHT22;71358;45.642;13.758;2023-07-29T15:50:48;27.90;60.50
81895;DHT22;71358;45.642;13.758;2023-07-29T15:53:33;27.90;60.50
81895;DHT22;71358;45.642;13.758;2023-07-29T15:56:17;27.90;60.60
81895;DHT22;71358;45.642;13.758;2023-07-29T15:59:02;27.90;60.60
81895;DHT22;71358;45.642;13.758;2023-07-29T16:01:47;27.90;60.60
81895;DHT22;71358;45.642;13.758;2023-07-29T16:04:31;27.90;60.70
81895;DHT22;71358;45.642;13.758;2023-07-29T16:07:16;27.90;60.70
81895;DHT22;71358;45.642;13.758;2023-07-29T16:10:01;27.90;60.70
81895;DHT22;71358;45.642;13.758;2023-07-29T16:12:45;27.90;60.80
81895;DHT22;71358;45.642;13.758;2023-07-29T16:15:30;27.90;60.70
81895;DHT22;71358;45.642;13.758;2023-07-29T16:18:15;27.90;60.90
81895;DHT22;71358;45.642;13.758;2023-07-29T16:20:59;27.90;61.00
81895;DHT22;71358;45.642;13.758;2023-07-29T16:23:45;27.90;61.00
81895;DHT22;71358;45.642;13.758;2023-07-29T16:26:30;27.90;60.90
81895;DHT22;71358;45.642;13.758;2023-07-29T16:29:14;27.90;60.80
81895;DHT22;71358;45.642;13.758;2023-07-29T16:31:59;27.90;60.70
81895;DHT22;71358;45.642;13.758;2023-07-29T16:34:44;27.90;60.70
81895;DHT22;71358;45.642;13.758;2023-07-29T16:37:28;27.90;60.70
81895;DHT22;71358;45.642;13.758;2023-07-29T16:40:13;27.90;60.70
81895;DHT22;71358;45.642;13.758;2023-07-29T16:42:58;27.90;60.80
81895;DHT22;71358;45.642;13.758;2023-07-29T16:45:42;27.90;62.20
81895;DHT22;71358;45.642;13.758;2023-07-29T16:48:27;27.90;64.20
81895;DHT22;71358;45.642;13.758;2023-07-29T16:51:11;27.90;65.60
81895;DHT22;71358;45.642;13.758;2023-07-29T16:53:56;27.90;65.60
81895;DHT22;71358;45.642;13.758;2023-07-29T16:56:41;27.90;66.50
81895;DHT22;71358;45.642;13.758;2023-07-29T16:59:26;28.00;67.10
81895;DHT22;71358;45.642;13.758;2023-07-29T17:02:10;28.00;67.50
81895;DHT22;71358;45.642;13.758;2023-07-29T17:04:55;28.00;68.00
81895;DHT22;71358;45.642;13.758;2023-07-29T17:07:39;28.00;68.40
81895;DHT22;71358;45.642;13.758;2023-07-29T17:10:24;28.00;68.70
81895;DHT22;71358;45.642;13.758;2023-07-29T17:13:08;28.20;69.40
81895;DHT22;71358;45.642;13.758;2023-07-29T17:15:53;28.30;69.10
81895;DHT22;71358;45.642;13.758;2023-07-29T17:18:38;28.30;68.40
81895;DHT22;71358;45.642;13.758;2023-07-29T17:21:23;28.40;69.30
81895;DHT22;71358;45.642;13.758;2023-07-29T17:24:07;28.30;69.00
81895;DHT22;71358;45.642;13.758;2023-07-29T17:26:52;28.40;68.00